createdAt,value
2018-04-24T05:17:17.674Z,99.90
2018-04-24T05:19:46.529Z,99.90
2018-04-24T05:22:16.072Z,99.90
2018-04-24T05:24:44.888Z,99.90
2018-04-24T05:27:13.734Z,99.90
2018-04-24T05:29:43.588Z,99.90
2018-04-24T05:32:12.455Z,99.90
2018-04-24T05:34:41.248Z,99.90
2018-04-24T05:37:09.741Z,99.90
2018-04-24T05:39:38.270Z,99.20
2018-04-24T05:42:06.775Z,99.00
2018-04-24T05:44:36.578Z,99.40
2018-04-24T05:47:05.158Z,99.40
2018-04-24T05:49:33.881Z,99.90
2018-04-24T05:52:03.071Z,99.90
2018-04-24T05:54:32.377Z,99.90
2018-04-24T05:57:00.871Z,99.90
2018-04-24T05:59:29.423Z,99.90
2018-04-24T06:01:58.677Z,99.90
2018-04-24T06:04:27.416Z,99.90
2018-04-24T06:06:57.032Z,96.60
2018-04-24T06:09:26.852Z,96.80
2018-04-24T06:11:55.688Z,96.90
2018-04-24T06:14:25.041Z,95.30
2018-04-24T06:16:56.778Z,95.40
2018-04-24T06:19:25.517Z,95.40
2018-04-24T06:21:55.208Z,93.60
2018-04-24T06:24:24.099Z,93.60
2018-04-24T06:26:52.975Z,92.70
2018-04-24T06:29:22.618Z,89.80
2018-04-24T06:31:51.472Z,90.00
2018-04-24T06:34:21.185Z,83.10
2018-04-24T06:36:51.029Z,85.30
2018-04-24T06:39:19.903Z,85.10
2018-04-24T06:41:48.697Z,85.90
2018-04-24T06:44:18.527Z,81.10
2018-04-24T06:46:47.358Z,80.60
2018-04-24T06:49:16.188Z,82.10
2018-04-24T06:51:46.000Z,86.70
2018-04-24T06:54:15.833Z,82.10
2018-04-24T06:56:44.657Z,82.00
2018-04-24T06:59:13.479Z,75.40
2018-04-24T07:01:43.332Z,72.90
2018-04-24T07:04:12.250Z,72.70
2018-04-24T07:06:41.196Z,75.20
2018-04-24T07:09:10.021Z,75.40
2018-04-24T07:11:39.689Z,75.70
2018-04-24T07:14:08.956Z,77.20
2018-04-24T07:16:37.595Z,81.60
2018-04-24T07:19:06.418Z,85.10
2018-04-24T07:21:35.204Z,82.60
2018-04-24T07:24:04.713Z,86.20
2018-04-24T07:26:33.673Z,87.10
2018-04-24T07:29:02.677Z,87.50
2018-04-24T07:31:32.106Z,90.00
2018-04-24T07:34:01.114Z,89.10
2018-04-24T07:36:30.240Z,89.30
2018-04-24T07:38:59.153Z,87.40
2018-04-24T07:41:27.897Z,88.80
2018-04-24T07:43:56.711Z,86.60
2018-04-24T07:46:25.497Z,84.50
2018-04-24T07:48:55.089Z,91.10
2018-04-24T07:51:25.301Z,91.00
2018-04-24T07:53:54.009Z,92.40
2018-04-24T07:56:21.851Z,93.50
2018-04-24T07:58:50.625Z,88.30
2018-04-24T08:01:19.445Z,90.80
2018-04-24T08:03:48.284Z,91.10
2018-04-24T08:06:17.057Z,91.90
2018-04-24T08:08:46.418Z,92.80
2018-04-24T08:11:15.512Z,92.90
2018-04-24T08:13:44.440Z,93.50
2018-04-24T08:16:14.160Z,93.40
2018-04-24T08:18:43.994Z,92.80
2018-04-24T08:21:12.991Z,92.80
2018-04-24T08:23:42.655Z,97.00
2018-04-24T08:26:13.706Z,98.10
2018-04-24T08:28:43.500Z,98.20
2018-04-24T08:31:12.473Z,98.10
2018-04-24T08:33:42.297Z,99.50
2018-04-24T08:36:11.280Z,99.00
2018-04-24T08:38:41.255Z,99.90
2018-04-24T08:41:10.503Z,99.90
2018-04-24T08:43:40.340Z,99.90
2018-04-24T08:46:10.262Z,99.90
2018-04-24T08:48:39.337Z,99.90
2018-04-24T08:51:08.105Z,99.90
2018-04-24T08:53:39.111Z,99.90
2018-04-24T08:56:08.544Z,99.90
2018-04-24T08:58:37.617Z,99.90
2018-04-24T09:01:07.085Z,99.90
2018-04-24T09:03:36.272Z,99.90
2018-04-24T09:06:04.969Z,99.90
2018-04-24T09:08:33.939Z,99.80
2018-04-24T09:11:02.747Z,99.90
2018-04-24T09:13:32.216Z,99.90
2018-04-24T09:16:01.132Z,99.90
2018-04-24T09:18:29.951Z,99.90
2018-04-24T09:20:58.927Z,99.90
2018-04-24T09:23:27.771Z,98.80
2018-04-24T09:25:57.356Z,99.90
2018-04-24T09:28:27.309Z,99.90
2018-04-24T09:30:56.394Z,99.90
2018-04-24T09:33:25.265Z,99.90
2018-04-24T09:35:54.012Z,98.70
2018-04-24T09:38:22.818Z,98.70
2018-04-24T09:40:52.373Z,98.40
2018-04-24T09:43:21.172Z,99.90
2018-04-24T09:45:50.048Z,99.90
2018-04-24T09:48:18.958Z,99.90
2018-04-24T09:50:47.853Z,99.90
2018-04-24T09:53:16.730Z,99.90
2018-04-24T09:55:46.670Z,99.90
2018-04-24T09:58:15.508Z,99.90
2018-04-24T10:00:45.017Z,99.90
2018-04-24T10:03:14.381Z,99.90
2018-04-24T10:05:43.971Z,99.70
2018-04-24T10:08:12.813Z,99.70
2018-04-24T10:10:41.614Z,99.90
2018-04-24T10:13:11.274Z,99.10
2018-04-24T10:15:40.096Z,99.10
2018-04-24T10:18:08.931Z,99.40
2018-04-24T10:20:37.768Z,99.90
2018-04-24T10:23:06.640Z,98.50
2018-04-24T10:25:35.537Z,99.90
2018-04-24T10:28:04.376Z,99.60
2018-04-24T10:30:34.107Z,99.90
2018-04-24T10:33:03.824Z,99.90
2018-04-24T10:35:32.148Z,99.90
2018-04-24T10:38:01.496Z,99.90
2018-04-24T10:40:30.626Z,99.90
2018-04-24T10:42:59.395Z,99.90
2018-04-24T10:45:28.304Z,99.90
2018-04-24T10:47:57.088Z,99.90
2018-04-24T10:50:26.880Z,99.90
2018-04-24T10:52:55.755Z,99.90
2018-04-24T10:55:25.453Z,97.50
2018-04-24T10:57:54.432Z,97.50
2018-04-24T11:00:23.227Z,94.00
2018-04-24T11:02:52.095Z,94.70
2018-04-24T11:05:20.918Z,94.40
2018-04-24T11:07:50.487Z,92.50
2018-04-24T11:10:19.484Z,92.50
2018-04-24T11:12:48.324Z,91.00
2018-04-24T11:15:18.078Z,86.50
2018-04-24T11:17:46.872Z,86.90
2018-04-24T11:20:15.645Z,79.80
2018-04-24T11:22:45.120Z,79.70
2018-04-24T11:25:14.519Z,54.90
2018-04-24T11:27:44.349Z,61.20
2018-04-24T11:30:14.010Z,63.90
2018-04-24T11:32:42.920Z,64.10
2018-04-24T11:35:11.681Z,47.50
2018-04-24T11:37:40.671Z,44.20
2018-04-24T11:40:09.498Z,45.10
2018-04-24T11:42:38.288Z,46.60
2018-04-24T11:45:06.860Z,47.30
2018-04-24T11:47:35.316Z,50.00
2018-04-24T11:50:03.763Z,48.80
2018-04-24T11:52:32.589Z,51.00
2018-04-24T11:55:01.411Z,51.10
2018-04-24T11:57:30.196Z,50.00
2018-04-24T11:59:59.045Z,53.00
2018-04-24T12:02:28.766Z,48.20
2018-04-24T12:04:57.552Z,51.00
2018-04-24T12:07:26.421Z,50.10
2018-04-24T12:09:54.773Z,54.60
2018-04-24T12:12:23.892Z,53.50
2018-04-24T12:14:52.808Z,44.80
2018-04-24T12:17:21.700Z,45.60
2018-04-24T12:19:50.546Z,48.30
2018-04-24T12:22:19.321Z,44.80
2018-04-24T12:24:48.182Z,42.80
2018-04-24T12:27:16.956Z,36.60
2018-04-24T12:29:45.794Z,41.70
2018-04-24T12:32:14.658Z,41.20
2018-04-24T12:34:43.519Z,44.60
2018-04-24T12:37:13.129Z,49.50
2018-04-24T12:39:41.967Z,42.60
2018-04-24T12:42:10.778Z,48.50
2018-04-24T12:44:39.707Z,48.50
2018-04-24T12:47:08.586Z,51.20
2018-04-24T12:49:37.345Z,49.30
2018-04-24T12:52:06.150Z,53.00
2018-04-24T12:54:35.983Z,47.60
2018-04-24T12:57:04.785Z,47.50
2018-04-24T12:59:33.683Z,52.00
2018-04-24T13:02:02.667Z,47.10
2018-04-24T13:04:31.485Z,43.80
2018-04-24T13:07:00.836Z,46.80
2018-04-24T13:09:30.503Z,53.10
2018-04-24T13:12:00.826Z,58.80
2018-04-24T13:14:29.668Z,58.90
2018-04-24T13:16:59.339Z,63.50
2018-04-24T13:19:28.285Z,63.60
2018-04-24T13:21:57.974Z,61.40
2018-04-24T13:24:27.820Z,59.00
2018-04-24T13:26:56.711Z,59.00
2018-04-24T13:29:25.482Z,61.30
2018-04-24T13:31:55.297Z,62.70
2018-04-24T13:34:25.458Z,57.40
2018-04-24T13:36:53.821Z,57.50
2018-04-24T13:39:22.812Z,60.00
2018-04-24T13:41:51.615Z,66.40
2018-04-24T13:44:20.442Z,68.10
2018-04-24T13:46:49.768Z,64.20
2018-04-24T13:49:19.352Z,66.40
2018-04-24T13:51:48.168Z,66.40
2018-04-24T13:54:17.777Z,66.30
2018-04-24T13:56:47.609Z,59.30
2018-04-24T13:59:16.435Z,59.20
2018-04-24T14:01:45.401Z,65.80
2018-04-24T14:04:14.208Z,67.00
2018-04-24T14:06:43.014Z,62.00
2018-04-24T14:09:11.813Z,64.60
2018-04-24T14:11:40.744Z,58.60
2018-04-24T14:14:10.832Z,58.00
2018-04-24T14:16:39.475Z,58.00
2018-04-24T14:19:08.216Z,57.10
2018-04-24T14:21:37.683Z,55.00
2018-04-24T14:24:06.694Z,52.60
2018-04-24T14:26:35.504Z,49.80
2018-04-24T14:29:04.973Z,52.40
2018-04-24T14:31:34.516Z,52.40
2018-04-24T14:34:03.241Z,57.80
2018-04-24T14:36:32.016Z,51.80
2018-04-24T14:39:01.620Z,61.20
2018-04-24T14:41:31.476Z,56.40
2018-04-24T14:44:00.360Z,56.50
2018-04-24T14:46:29.164Z,54.00
2018-04-24T14:48:58.203Z,56.20
2018-04-24T14:51:27.798Z,55.90
2018-04-24T14:53:57.595Z,51.80
2018-04-24T14:56:26.915Z,51.80
2018-04-24T14:58:57.434Z,55.00
2018-04-24T15:01:27.187Z,51.70
2018-04-24T15:03:56.913Z,58.90
2018-04-24T15:06:25.729Z,58.90
2018-04-24T15:08:54.562Z,59.00
2018-04-24T15:11:23.310Z,63.40
2018-04-24T15:13:52.216Z,61.90
2018-04-24T15:16:21.031Z,67.50
2018-04-24T15:18:49.864Z,74.60
2018-04-24T15:21:18.681Z,80.20
2018-04-24T15:23:47.191Z,79.50
2018-04-24T15:26:15.719Z,73.80
2018-04-24T15:28:44.244Z,78.90
2018-04-24T15:31:13.384Z,86.20
2018-04-24T15:33:42.055Z,82.70
2018-04-24T15:36:10.805Z,82.00
2018-04-24T15:38:39.556Z,72.40
2018-04-24T15:41:08.384Z,76.80
2018-04-24T15:43:37.112Z,78.70
2018-04-24T15:46:06.907Z,79.40
2018-04-24T15:48:35.732Z,79.40
2018-04-24T15:51:04.558Z,76.70
2018-04-24T15:53:33.389Z,70.30
2018-04-24T15:56:01.897Z,66.90
2018-04-24T15:58:31.048Z,65.80
2018-04-24T16:01:00.475Z,71.40
2018-04-24T16:03:29.014Z,67.20
2018-04-24T16:05:58.493Z,67.30
2018-04-24T16:08:27.345Z,65.80
2018-04-24T16:10:56.179Z,74.70
2018-04-24T16:13:26.029Z,74.90
2018-04-24T16:15:54.514Z,75.00
2018-04-24T16:18:23.007Z,77.70
2018-04-24T16:20:51.542Z,77.70
2018-04-24T16:23:20.026Z,77.20
2018-04-24T16:25:48.567Z,76.80
2018-04-24T16:28:17.244Z,79.90
2018-04-24T16:30:45.736Z,83.40
2018-04-24T16:33:14.587Z,85.70
2018-04-24T16:35:43.483Z,85.00
2018-04-24T16:38:12.357Z,85.10
2018-04-24T16:40:40.859Z,88.70
2018-04-24T16:43:09.981Z,88.20
2018-04-24T16:45:38.780Z,87.80
2018-04-24T16:48:07.506Z,87.50
2018-04-24T16:50:36.315Z,88.30
2018-04-24T16:53:05.147Z,90.10
2018-04-24T16:55:33.658Z,91.70
2018-04-24T16:58:03.060Z,92.30
2018-04-24T17:00:32.723Z,93.00
2018-04-24T17:03:01.576Z,93.00
2018-04-24T17:05:31.287Z,94.50
2018-04-24T17:08:00.019Z,94.50
2018-04-24T17:10:28.920Z,95.10
2018-04-24T17:12:59.761Z,95.30
2018-04-24T17:15:29.479Z,95.20
2018-04-24T17:17:59.200Z,95.80
2018-04-24T17:20:28.297Z,96.60
2018-04-24T17:22:58.182Z,97.30
2018-04-24T17:25:26.881Z,97.20
2018-04-24T17:34:43.813Z,99.10
2018-04-24T17:37:36.065Z,99.60
2018-04-24T17:40:05.998Z,99.90
2018-04-24T17:42:35.760Z,99.90
2018-04-24T17:45:04.588Z,99.90
2018-04-24T17:47:36.192Z,99.90
2018-04-24T17:50:06.147Z,99.90
2018-04-24T17:55:21.772Z,99.90
2018-04-24T18:00:25.748Z,99.90
2018-04-24T18:14:16.869Z,99.90
2018-04-24T18:17:49.499Z,99.90
2018-04-24T18:20:20.279Z,99.90
2018-04-24T18:22:50.202Z,99.90
2018-04-24T18:39:05.115Z,99.90
2018-04-24T18:44:42.618Z,99.90
2018-04-24T18:47:18.205Z,99.90
2018-04-24T18:49:50.583Z,99.90
2018-04-24T18:52:22.633Z,99.90
2018-04-24T18:54:52.611Z,99.90
2018-04-24T18:57:23.609Z,99.90
2018-04-24T18:59:52.760Z,99.90
2018-04-24T19:02:21.638Z,99.90
2018-04-24T19:05:14.667Z,99.90
2018-04-24T19:07:44.252Z,99.90
2018-04-24T19:10:13.357Z,99.90
2018-04-24T19:12:42.841Z,99.90
2018-04-24T19:15:11.536Z,99.90
2018-04-24T19:17:40.452Z,99.90
2018-04-24T19:20:09.612Z,99.90
2018-04-24T19:22:39.046Z,99.90
2018-04-24T19:25:13.277Z,99.90
2018-04-24T19:27:42.095Z,99.90
2018-04-24T19:57:34.339Z,99.90
2018-04-24T21:37:00.297Z,99.90
